Time;durP1;ratioP1;P1;durP2;ratioP2;P2;SDS_P1;SDS_P2;PMS_P1;PMS_P2;Temp;Humidity;BMP_temperature;BMP_pressure;BME280_temperature;BME280_humidity;BME280_pressure;Samples;Min_cycle;Max_cycle;Signal;HPM_P1;HPM_P2
2021/12/08 00:02:16;;;;;;;3.67;2.83;;;;;;;;;;5057954;28;20052;-36
2021/12/08 00:04:42;;;;;;;4.07;2.67;;;;;;;;;;5057850;28;20462;-37
2021/12/08 00:07:08;;;;;;;6.40;3.30;;;;;;;;;;5057513;28;20029;-36
2021/12/08 00:09:59;;;;;;;3.33;2.63;;;;;;;;;;5057907;28;20021;-37
2021/12/08 00:15:09;;;;;;;7.50;3.08;;;;;;;;;;5057498;28;20170;-37
2021/12/08 00:17:34;;;;;;;4.65;2.50;;;;;;;;;;5057830;28;20029;-37
2021/12/08 00:20:02;;;;;;;5.00;2.85;;;;;;;;;;5057770;28;20025;-37
2021/12/08 00:22:28;;;;;;;5.05;2.47;;;;;;;;;;5057574;28;20021;-37
2021/12/08 00:24:54;;;;;;;5.57;2.65;;;;;;;;;;5057495;28;20094;-36
2021/12/08 00:27:19;;;;;;;5.53;2.78;;;;;;;;;;5057362;28;20422;-37
2021/12/08 00:29:45;;;;;;;4.43;2.72;;;;;;;;;;5056578;28;20060;-37
2021/12/08 00:32:11;;;;;;;3.58;2.70;;;;;;;;;;5057362;28;20499;-37
2021/12/08 00:34:38;;;;;;;5.50;2.95;;;;;;;;;;5057665;28;20040;-37
2021/12/08 00:37:04;;;;;;;3.83;2.90;;;;;;;;;;5057339;28;20100;-37
2021/12/08 00:39:29;;;;;;;2.75;2.38;;;;;;;;;;5057339;28;20049;-37
2021/12/08 00:41:55;;;;;;;3.45;2.35;;;;;;;;;;5057605;28;20036;-37
2021/12/08 00:44:20;;;;;;;21.10;3.47;;;;;;;;;;5057284;28;20395;-37
2021/12/08 00:46:45;;;;;;;3.65;2.70;;;;;;;;;;5057279;28;20116;-36
2021/12/08 00:49:13;;;;;;;7.05;3.10;;;;;;;;;;5057406;28;20037;-37
2021/12/08 00:51:39;;;;;;;6.95;3.30;;;;;;;;;;5057233;28;20021;-37
2021/12/08 00:54:04;;;;;;;4.55;2.95;;;;;;;;;;5057515;28;20037;-37
2021/12/08 00:56:30;;;;;;;7.10;3.30;;;;;;;;;;5055685;28;20028;-37
2021/12/08 00:58:56;;;;;;;5.43;3.05;;;;;;;;;;5054084;28;20029;-37
2021/12/08 01:01:22;;;;;;;9.25;2.70;;;;;;;;;;5053947;28;20036;-37
2021/12/08 01:03:49;;;;;;;6.90;2.70;;;;;;;;;;5053863;28;20047;-37
2021/12/08 01:06:15;;;;;;;5.93;3.10;;;;;;;;;;5053800;28;20029;-36
2021/12/08 01:08:41;;;;;;;5.50;3.03;;;;;;;;;;5053948;28;20063;-36
2021/12/08 01:11:09;;;;;;;4.25;1.92;;;;;;;;;;5053905;28;20013;-37
2021/12/08 01:13:35;;;;;;;7.68;2.95;;;;;;;;;;5053891;28;20124;-37
2021/12/08 01:16:01;;;;;;;8.40;3.30;;;;;;;;;;5053640;28;20021;-37
2021/12/08 01:18:28;;;;;;;3.03;1.80;;;;;;;;;;5053633;28;20422;-37
2021/12/08 01:20:54;;;;;;;4.25;2.53;;;;;;;;;;5053644;28;20028;-37
2021/12/08 01:23:20;;;;;;;5.18;3.25;;;;;;;;;;5053718;28;20040;-37
2021/12/08 01:25:45;;;;;;;4.25;2.78;;;;;;;;;;5053598;28;20021;-36
2021/12/08 01:28:11;;;;;;;7.85;3.47;;;;;;;;;;5052152;28;20037;-37
2021/12/08 01:30:36;;;;;;;3.63;2.50;;;;;;;;;;5053740;28;20021;-37
2021/12/08 01:33:03;;;;;;;4.03;2.50;;;;;;;;;;5053388;28;20052;-37
2021/12/08 01:35:29;;;;;;;8.20;3.63;;;;;;;;;;5053333;28;20033;-37
2021/12/08 01:37:54;;;;;;;4.28;2.40;;;;;;;;;;5053179;28;20025;-37
2021/12/08 01:40:20;;;;;;;4.57;2.65;;;;;;;;;;5053282;28;20040;-37
2021/12/08 01:42:49;;;;;;;6.20;3.45;;;;;;;;;;5053421;28;20029;-37
2021/12/08 01:48:01;;;;;;;5.97;2.95;;;;;;;;;;5053364;28;20078;-37
2021/12/08 01:50:27;;;;;;;8.40;3.88;;;;;;;;;;5051900;28;20059;-37
2021/12/08 01:52:52;;;;;;;6.22;3.22;;;;;;;;;;5053193;28;20052;-36
2021/12/08 01:55:18;;;;;;;5.00;2.17;;;;;;;;;;5052710;28;20029;-36
2021/12/08 01:57:44;;;;;;;2.80;2.47;;;;;;;;;;5053208;28;20061;-37
2021/12/08 02:00:16;;;;;;;4.82;2.45;;;;;;;;;;5052005;28;20360;-37
2021/12/08 02:02:42;;;;;;;2.03;1.80;;;;;;;;;;5052835;28;20071;-37
2021/12/08 02:05:07;;;;;;;3.40;2.38;;;;;;;;;;5052965;28;20045;-37
2021/12/08 02:07:34;;;;;;;3.78;2.63;;;;;;;;;;5053007;28;20108;-37
2021/12/08 02:10:00;;;;;;;4.20;2.17;;;;;;;;;;5051562;28;20568;-37
2021/12/08 02:12:25;;;;;;;6.70;3.05;;;;;;;;;;5053022;28;20108;-37
2021/12/08 02:14:50;;;;;;;7.22;3.33;;;;;;;;;;5052856;28;20029;-37
2021/12/08 02:17:16;;;;;;;12.73;2.70;;;;;;;;;;5052781;28;20074;-37
2021/12/08 02:19:41;;;;;;;5.88;2.75;;;;;;;;;;5052877;28;20380;-37
2021/12/08 02:22:06;;;;;;;10.50;2.92;;;;;;;;;;5052391;28;20032;-38
2021/12/08 02:24:32;;;;;;;3.40;2.60;;;;;;;;;;5052282;28;20047;-37
2021/12/08 02:26:58;;;;;;;5.15;2.15;;;;;;;;;;5052359;28;20021;-37
2021/12/08 02:29:52;;;;;;;5.13;3.33;;;;;;;;;;5052384;28;20025;-37
2021/12/08 02:48:27;;;;;;;5.72;3.47;;;;;;;;;;5051962;28;20032;-37
2021/12/08 02:50:52;;;;;;;4.30;3.08;;;;;;;;;;5052239;28;20055;-37
2021/12/08 02:53:18;;;;;;;6.55;3.17;;;;;;;;;;5051876;28;20752;-37
2021/12/08 02:55:44;;;;;;;6.15;3.08;;;;;;;;;;5051892;28;20017;-37
2021/12/08 02:58:10;;;;;;;6.20;2.60;;;;;;;;;;5051798;28;20029;-37
2021/12/08 03:00:47;;;;;;;3.08;2.40;;;;;;;;;;5052084;28;20028;-37
2021/12/08 03:03:12;;;;;;;10.63;4.53;;;;;;;;;;5051603;28;20047;-37
2021/12/08 03:05:38;;;;;;;4.60;2.45;;;;;;;;;;5052002;28;20116;-37
2021/12/08 03:08:04;;;;;;;6.85;3.13;;;;;;;;;;5051648;28;20071;-36
2021/12/08 03:10:31;;;;;;;3.83;2.67;;;;;;;;;;5051890;28;20021;-37
2021/12/08 03:12:56;;;;;;;5.68;3.03;;;;;;;;;;5051861;28;20483;-37
2021/12/08 03:15:21;;;;;;;8.90;3.95;;;;;;;;;;5051735;28;20052;-37
2021/12/08 03:17:47;;;;;;;4.53;3.05;;;;;;;;;;5051718;28;20177;-37
2021/12/08 03:20:15;;;;;;;6.53;3.15;;;;;;;;;;5051322;28;20478;-36
2021/12/08 03:22:45;;;;;;;4.85;3.35;;;;;;;;;;5051390;28;20040;-37
2021/12/08 03:25:13;;;;;;;9.10;2.63;;;;;;;;;;5051526;28;20033;-37
2021/12/08 03:27:47;;;;;;;7.43;3.15;;;;;;;;;;5051436;28;20029;-37
2021/12/08 03:30:21;;;;;;;4.90;2.97;;;;;;;;;;5051255;28;20487;-37
2021/12/08 03:32:46;;;;;;;11.73;3.00;;;;;;;;;;5051564;28;20039;-37
2021/12/08 03:35:13;;;;;;;9.40;3.28;;;;;;;;;;5051524;28;20036;-37
2021/12/08 03:37:40;;;;;;;6.10;3.83;;;;;;;;;;5051284;28;20579;-36
2021/12/08 03:40:12;;;;;;;5.53;3.03;;;;;;;;;;5050985;28;20127;-37
2021/12/08 03:42:39;;;;;;;7.97;3.80;;;;;;;;;;5051608;28;20461;-36
2021/12/08 03:45:10;;;;;;;6.72;2.70;;;;;;;;;;5051322;28;20420;-37
2021/12/08 03:47:38;;;;;;;3.92;2.65;;;;;;;;;;5051113;28;20025;-36
2021/12/08 03:50:05;;;;;;;3.85;2.58;;;;;;;;;;5051160;28;20108;-37
2021/12/08 03:52:30;;;;;;;4.50;3.03;;;;;;;;;;5049823;28;20032;-36
2021/12/08 03:54:56;;;;;;;6.95;2.97;;;;;;;;;;5051033;28;20078;-37
2021/12/08 03:57:21;;;;;;;5.53;2.72;;;;;;;;;;5051005;28;20051;-37
2021/12/08 03:59:46;;;;;;;7.18;3.30;;;;;;;;;;5051038;28;20044;-37
2021/12/08 04:02:12;;;;;;;3.50;2.47;;;;;;;;;;5051253;28;20039;-37
2021/12/08 04:04:44;;;;;;;3.33;2.67;;;;;;;;;;5051239;28;20025;-36
2021/12/08 04:07:12;;;;;;;5.97;3.45;;;;;;;;;;5051126;28;20027;-37
2021/12/08 04:09:40;;;;;;;3.00;2.03;;;;;;;;;;5050980;28;20029;-36
2021/12/08 04:12:07;;;;;;;5.80;3.00;;;;;;;;;;5050949;28;20113;-38
2021/12/08 04:14:35;;;;;;;3.30;2.10;;;;;;;;;;5050842;28;20404;-36
2021/12/08 04:17:03;;;;;;;9.88;2.60;;;;;;;;;;5050796;28;20065;-37
2021/12/08 04:19:29;;;;;;;6.72;2.53;;;;;;;;;;5051089;28;20028;-37
2021/12/08 04:21:55;;;;;;;5.40;2.72;;;;;;;;;;5051110;28;20545;-37
2021/12/08 04:24:21;;;;;;;6.45;3.20;;;;;;;;;;5051045;28;20387;-37
2021/12/08 04:26:52;;;;;;;11.20;4.15;;;;;;;;;;5051064;28;20029;-37
2021/12/08 04:29:20;;;;;;;6.60;3.03;;;;;;;;;;5050947;28;20071;-36
2021/12/08 04:31:47;;;;;;;3.50;2.35;;;;;;;;;;5051187;28;20510;-36
2021/12/08 04:34:17;;;;;;;5.00;2.60;;;;;;;;;;5054792;28;20108;-37
2021/12/08 04:36:46;;;;;;;7.18;2.90;;;;;;;;;;5054421;28;20368;-37
2021/12/08 04:39:24;;;;;;;7.55;3.22;;;;;;;;;;5054236;28;20041;-37
2021/12/08 04:41:56;;;;;;;7.38;2.72;;;;;;;;;;5054766;28;20425;-37
2021/12/08 04:44:29;;;;;;;2.88;2.05;;;;;;;;;;5054462;28;20132;-36
2021/12/08 04:52:30;;;;;;;7.97;2.70;;;;;;;;;;5051961;28;20103;-36
2021/12/08 05:01:13;;;;;;;7.45;2.40;;;;;;;;;;5054102;28;20028;-37
2021/12/08 05:08:45;;;;;;;5.60;3.55;;;;;;;;;;5054258;28;20060;-37
2021/12/08 05:11:32;;;;;;;4.90;3.17;;;;;;;;;;5054106;28;20024;-36
2021/12/08 05:14:01;;;;;;;7.57;3.33;;;;;;;;;;5054049;28;20534;-37
2021/12/08 05:16:27;;;;;;;7.95;3.65;;;;;;;;;;5053768;28;20021;-37
2021/12/08 05:18:54;;;;;;;5.20;2.88;;;;;;;;;;5054014;28;20033;-38
2021/12/08 05:21:37;;;;;;;6.88;2.70;;;;;;;;;;5053689;28;20029;-37
2021/12/08 05:24:32;;;;;;;7.78;3.13;;;;;;;;;;5053489;28;20047;-37
2021/12/08 05:27:09;;;;;;;4.82;2.20;;;;;;;;;;5048800;28;20536;-37
2021/12/08 05:29:44;;;;;;;6.88;2.22;;;;;;;;;;5053814;28;20035;-37
2021/12/08 05:32:10;;;;;;;6.50;2.85;;;;;;;;;;5053388;28;20033;-37
2021/12/08 05:34:36;;;;;;;10.23;3.45;;;;;;;;;;5053357;28;20371;-38
2021/12/08 05:37:02;;;;;;;5.78;2.72;;;;;;;;;;5053326;28;20039;-37
2021/12/08 05:39:29;;;;;;;5.60;2.83;;;;;;;;;;5053256;28;20047;-37
2021/12/08 05:41:56;;;;;;;4.05;1.73;;;;;;;;;;5053397;28;20075;-37
2021/12/08 05:44:22;;;;;;;5.68;2.80;;;;;;;;;;5052905;28;20065;-37
2021/12/08 05:46:49;;;;;;;6.18;2.45;;;;;;;;;;5053358;28;20541;-37
2021/12/08 05:49:16;;;;;;;8.27;3.58;;;;;;;;;;5053342;28;20105;-37
2021/12/08 05:51:43;;;;;;;8.55;3.17;;;;;;;;;;5053211;28;20032;-36
2021/12/08 05:54:14;;;;;;;11.65;3.00;;;;;;;;;;5053279;28;20403;-37
2021/12/08 05:56:41;;;;;;;10.80;3.13;;;;;;;;;;5053228;28;20365;-36
2021/12/08 05:59:08;;;;;;;9.10;2.53;;;;;;;;;;5053182;28;20581;-37
2021/12/08 06:01:45;;;;;;;10.90;3.47;;;;;;;;;;5052883;28;20033;-37
2021/12/08 06:04:11;;;;;;;6.05;2.92;;;;;;;;;;5052769;28;20048;-37
2021/12/08 06:06:37;;;;;;;7.70;3.03;;;;;;;;;;5052772;28;20021;-37
2021/12/08 06:09:05;;;;;;;6.97;3.90;;;;;;;;;;5052631;28;20043;-37
2021/12/08 06:11:31;;;;;;;5.05;3.63;;;;;;;;;;5053071;28;20025;-36
2021/12/08 06:14:00;;;;;;;3.92;2.78;;;;;;;;;;5051414;28;20533;-37
2021/12/08 06:16:29;;;;;;;4.88;2.70;;;;;;;;;;5052398;28;20057;-36
2021/12/08 06:18:55;;;;;;;4.25;2.38;;;;;;;;;;5052881;28;20032;-37
2021/12/08 06:21:23;;;;;;;5.35;2.13;;;;;;;;;;5052523;28;20480;-37
2021/12/08 06:23:48;;;;;;;3.63;1.63;;;;;;;;;;5051161;28;20091;-36
2021/12/08 06:26:16;;;;;;;5.78;2.60;;;;;;;;;;5052313;28;20046;-37
2021/12/08 06:28:41;;;;;;;4.28;2.53;;;;;;;;;;5051187;28;20041;-37
2021/12/08 06:31:08;;;;;;;1.67;1.50;;;;;;;;;;5052245;28;20456;-36
2021/12/08 06:33:34;;;;;;;3.85;1.55;;;;;;;;;;5052339;28;20029;-36
2021/12/08 06:36:03;;;;;;;4.15;2.28;;;;;;;;;;5052217;28;20036;-36
2021/12/08 06:38:29;;;;;;;3.35;2.60;;;;;;;;;;5051853;28;20559;-37
2021/12/08 06:41:00;;;;;;;5.07;2.55;;;;;;;;;;5052193;28;20144;-37
2021/12/08 06:43:29;;;;;;;6.20;3.25;;;;;;;;;;5050956;28;20100;-36
2021/12/08 06:45:57;;;;;;;3.40;1.98;;;;;;;;;;5052072;28;20085;-36
2021/12/08 06:48:25;;;;;;;3.78;2.30;;;;;;;;;;5051951;28;20043;-36
2021/12/08 06:50:52;;;;;;;5.97;2.65;;;;;;;;;;5052265;28;20036;-37
2021/12/08 06:53:18;;;;;;;5.22;2.78;;;;;;;;;;5052140;28;20025;-36
2021/12/08 06:55:48;;;;;;;5.00;3.08;;;;;;;;;;5051278;28;20539;-36
2021/12/08 06:58:18;;;;;;;6.88;3.20;;;;;;;;;;5051891;28;20410;-36
2021/12/08 07:01:02;;;;;;;7.70;3.03;;;;;;;;;;5050379;28;20036;-36
2021/12/08 07:03:39;;;;;;;6.75;3.25;;;;;;;;;;5051815;28;20044;-36
2021/12/08 07:06:19;;;;;;;9.60;4.78;;;;;;;;;;5051569;28;20033;-37
2021/12/08 07:08:47;;;;;;;6.32;3.42;;;;;;;;;;5052020;28;20036;-36
2021/12/08 07:11:15;;;;;;;10.82;2.83;;;;;;;;;;5051590;28;20032;-36
2021/12/08 07:13:41;;;;;;;3.60;2.03;;;;;;;;;;5051541;28;20112;-36
2021/12/08 07:16:06;;;;;;;2.38;2.08;;;;;;;;;;5051593;28;20099;-36
2021/12/08 07:18:40;;;;;;;2.50;1.90;;;;;;;;;;5051834;28;20475;-36
2021/12/08 07:21:08;;;;;;;4.03;2.25;;;;;;;;;;5051685;28;20040;-36
2021/12/08 07:23:37;;;;;;;10.70;3.33;;;;;;;;;;5051677;28;20120;-36
2021/12/08 07:26:09;;;;;;;8.50;2.75;;;;;;;;;;5051625;28;20029;-36
2021/12/08 07:28:37;;;;;;;4.13;3.08;;;;;;;;;;5051431;28;20480;-36
2021/12/08 07:31:24;;;;;;;8.15;3.20;;;;;;;;;;5051674;28;20435;-36
2021/12/08 07:33:50;;;;;;;13.05;4.22;;;;;;;;;;5051572;28;20025;-36
2021/12/08 07:36:17;;;;;;;6.07;2.88;;;;;;;;;;5051473;28;20055;-36
2021/12/08 07:38:45;;;;;;;4.75;3.25;;;;;;;;;;5051116;28;20083;-36
2021/12/08 07:41:22;;;;;;;3.20;2.45;;;;;;;;;;5051088;28;20029;-36
2021/12/08 07:43:50;;;;;;;7.82;2.65;;;;;;;;;;5051148;28;20123;-36
2021/12/08 07:46:22;;;;;;;7.40;3.10;;;;;;;;;;5050899;28;20021;-36
2021/12/08 07:48:53;;;;;;;10.27;4.47;;;;;;;;;;5051084;28;20044;-37
2021/12/08 07:51:24;;;;;;;7.18;2.97;;;;;;;;;;5051359;28;20052;-37
2021/12/08 07:53:49;;;;;;;11.88;3.30;;;;;;;;;;5051187;28;20056;-37
2021/12/08 07:56:16;;;;;;;10.77;3.55;;;;;;;;;;5051239;28;20068;-36
2021/12/08 07:58:47;;;;;;;6.10;3.17;;;;;;;;;;5051209;28;20021;-36
2021/12/08 08:01:14;;;;;;;9.40;3.08;;;;;;;;;;5051280;28;20129;-36
2021/12/08 08:03:40;;;;;;;7.13;3.22;;;;;;;;;;5050954;28;20029;-36
2021/12/08 08:06:09;;;;;;;4.82;2.58;;;;;;;;;;5051939;28;20089;-36
2021/12/08 08:08:35;;;;;;;11.30;3.78;;;;;;;;;;5054970;28;20013;-36
2021/12/08 08:11:21;;;;;;;8.00;3.75;;;;;;;;;;5055336;28;20044;-36
2021/12/08 08:13:46;;;;;;;6.82;3.88;;;;;;;;;;5054707;28;20049;-36
2021/12/08 08:16:14;;;;;;;6.35;2.75;;;;;;;;;;5055072;28;20029;-37
2021/12/08 08:18:41;;;;;;;9.40;3.38;;;;;;;;;;5055023;28;20471;-36
2021/12/08 08:21:09;;;;;;;7.00;3.53;;;;;;;;;;5054731;28;20031;-36
2021/12/08 08:23:35;;;;;;;5.72;2.20;;;;;;;;;;5054667;28;20047;-36
2021/12/08 08:26:02;;;;;;;6.15;2.05;;;;;;;;;;5054990;28;20017;-37
2021/12/08 08:28:27;;;;;;;7.78;3.20;;;;;;;;;;5054904;28;20033;-37
2021/12/08 08:31:05;;;;;;;9.07;2.42;;;;;;;;;;5054714;28;20419;-36
2021/12/08 08:33:32;;;;;;;5.05;2.08;;;;;;;;;;5054699;28;20037;-37
2021/12/08 08:36:03;;;;;;;6.57;3.30;;;;;;;;;;5054614;28;20043;-37
2021/12/08 08:38:31;;;;;;;2.45;1.50;;;;;;;;;;5054289;28;20049;-36
2021/12/08 08:41:00;;;;;;;3.00;2.08;;;;;;;;;;5054521;28;20483;-37
2021/12/08 08:43:26;;;;;;;8.00;2.33;;;;;;;;;;5054529;28;20044;-36
2021/12/08 08:45:56;;;;;;;3.20;2.03;;;;;;;;;;5053095;28;20036;-37
2021/12/08 08:48:26;;;;;;;6.68;3.00;;;;;;;;;;5054541;28;20029;-37
2021/12/08 08:50:54;;;;;;;11.38;3.80;;;;;;;;;;5054310;28;20040;-36
2021/12/08 08:53:20;;;;;;;6.15;3.17;;;;;;;;;;5054041;28;20075;-36
2021/12/08 08:56:03;;;;;;;7.05;3.25;;;;;;;;;;5054507;28;20033;-37
2021/12/08 08:58:30;;;;;;;6.63;2.42;;;;;;;;;;5054331;28;20032;-36
2021/12/08 09:00:58;;;;;;;5.28;2.53;;;;;;;;;;5054449;28;20024;-36
2021/12/08 09:03:25;;;;;;;4.38;2.08;;;;;;;;;;5053937;28;20407;-37
2021/12/08 09:05:53;;;;;;;4.35;2.55;;;;;;;;;;5052689;28;20748;-36
2021/12/08 09:08:21;;;;;;;9.82;4.32;;;;;;;;;;5054178;28;20077;-37
2021/12/08 09:10:56;;;;;;;6.20;2.85;;;;;;;;;;5052671;28;20024;-36
2021/12/08 09:13:26;;;;;;;8.60;3.78;;;;;;;;;;5054039;28;20033;-36
2021/12/08 09:15:57;;;;;;;6.78;3.85;;;;;;;;;;5053807;28;20060;-36
2021/12/08 09:18:22;;;;;;;6.03;2.33;;;;;;;;;;5052961;28;20033;-37
2021/12/08 09:20:54;;;;;;;5.50;2.67;;;;;;;;;;5054000;28;20017;-37
2021/12/08 09:23:24;;;;;;;7.55;3.45;;;;;;;;;;5053862;28;20044;-36
2021/12/08 09:25:54;;;;;;;5.45;3.35;;;;;;;;;;5053905;28;20518;-37
2021/12/08 09:28:33;;;;;;;4.05;2.80;;;;;;;;;;5053486;28;20025;-37
2021/12/08 09:31:03;;;;;;;3.83;3.30;;;;;;;;;;5053840;28;20166;-37
2021/12/08 09:33:37;;;;;;;6.85;2.95;;;;;;;;;;5053467;28;20057;-37
2021/12/08 09:36:07;;;;;;;5.05;3.30;;;;;;;;;;5053610;28;20021;-37
2021/12/08 09:38:38;;;;;;;4.68;2.42;;;;;;;;;;5053490;28;20258;-36
2021/12/08 09:41:06;;;;;;;2.83;1.27;;;;;;;;;;5053681;28;20026;-36
2021/12/08 09:43:34;;;;;;;1.40;1.30;;;;;;;;;;5053290;28;20160;-37
2021/12/08 09:46:02;;;;;;;2.78;1.52;;;;;;;;;;5053217;28;20028;-37
2021/12/08 09:48:29;;;;;;;2.70;1.88;;;;;;;;;;5052144;28;20054;-36
2021/12/08 09:50:58;;;;;;;1.58;1.48;;;;;;;;;;5053258;28;20025;-37
2021/12/08 09:53:24;;;;;;;3.28;2.08;;;;;;;;;;5053345;28;20009;-38
2021/12/08 09:55:50;;;;;;;4.03;1.88;;;;;;;;;;5052978;28;20033;-37
2021/12/08 09:58:16;;;;;;;4.72;2.30;;;;;;;;;;5053012;28;20120;-36
2021/12/08 10:00:42;;;;;;;7.60;2.55;;;;;;;;;;5052949;28;20033;-36
2021/12/08 10:03:08;;;;;;;4.63;2.53;;;;;;;;;;5052673;28;20028;-36
2021/12/08 10:05:35;;;;;;;5.97;3.08;;;;;;;;;;5052896;28;20388;-37
2021/12/08 10:08:02;;;;;;;6.43;3.22;;;;;;;;;;5052890;28;20020;-37
2021/12/08 10:10:28;;;;;;;3.60;1.50;;;;;;;;;;5051802;28;20052;-36
2021/12/08 10:12:53;;;;;;;3.53;2.30;;;;;;;;;;5052784;28;20459;-36
2021/12/08 10:15:20;;;;;;;7.70;2.58;;;;;;;;;;5051310;28;20078;-36
2021/12/08 10:17:46;;;;;;;6.20;3.20;;;;;;;;;;5052624;28;20192;-37
2021/12/08 10:20:20;;;;;;;7.22;3.63;;;;;;;;;;5052560;28;20090;-36
2021/12/08 10:22:47;;;;;;;4.38;3.35;;;;;;;;;;5052883;28;20108;-36
2021/12/08 10:25:15;;;;;;;2.40;1.65;;;;;;;;;;5052363;28;20036;-37
2021/12/08 10:27:59;;;;;;;3.90;2.30;;;;;;;;;;5052853;28;20798;-36
2021/12/08 10:30:25;;;;;;;5.00;2.40;;;;;;;;;;5051366;28;20112;-37
2021/12/08 10:32:53;;;;;;;11.60;3.72;;;;;;;;;;5052660;28;20112;-37
2021/12/08 10:35:40;;;;;;;13.15;6.45;;;;;;;;;;5052449;28;20029;-37
2021/12/08 10:38:06;;;;;;;8.10;3.70;;;;;;;;;;5052328;28;20388;-37
2021/12/08 10:40:32;;;;;;;8.77;3.55;;;;;;;;;;5052267;28;20059;-37
2021/12/08 10:42:58;;;;;;;10.15;3.08;;;;;;;;;;5052110;28;20037;-36
2021/12/08 10:45:27;;;;;;;10.70;5.07;;;;;;;;;;5051984;28;20032;-37
2021/12/08 10:47:55;;;;;;;8.85;2.75;;;;;;;;;;5052366;28;20029;-37
2021/12/08 10:56:02;;;;;;;3.05;1.83;;;;;;;;;;5051923;28;20587;-36
2021/12/08 10:58:30;;;;;;;2.95;1.48;;;;;;;;;;5052161;28;20025;-36
2021/12/08 11:00:57;;;;;;;5.82;2.20;;;;;;;;;;5052125;28;20039;-36
2021/12/08 11:03:22;;;;;;;5.22;2.60;;;;;;;;;;5051667;28;20029;-37
2021/12/08 11:05:50;;;;;;;4.85;2.50;;;;;;;;;;5052017;28;20103;-37
2021/12/08 11:08:30;;;;;;;7.30;4.00;;;;;;;;;;5051896;28;20056;-36
2021/12/08 11:11:01;;;;;;;6.13;3.15;;;;;;;;;;5051684;28;20045;-36
2021/12/08 11:13:28;;;;;;;10.13;2.90;;;;;;;;;;5051627;28;20697;-37
2021/12/08 11:15:59;;;;;;;7.72;3.53;;;;;;;;;;5051788;28;20059;-36
2021/12/08 11:18:26;;;;;;;3.55;2.22;;;;;;;;;;5051529;28;20434;-36
2021/12/08 11:20:54;;;;;;;3.63;2.72;;;;;;;;;;5051838;28;20029;-37
2021/12/08 11:26:37;;;;;;;6.18;3.40;;;;;;;;;;5049016;28;20037;-36
2021/12/08 11:29:03;;;;;;;10.43;3.85;;;;;;;;;;5050969;28;20049;-36
2021/12/08 11:31:34;;;;;;;8.50;3.17;;;;;;;;;;5051597;28;20044;-37
2021/12/08 11:34:03;;;;;;;7.72;2.97;;;;;;;;;;5051366;28;20558;-36
2021/12/08 11:36:30;;;;;;;9.23;3.60;;;;;;;;;;5049935;28;20032;-36
2021/12/08 11:38:57;;;;;;;15.55;5.72;;;;;;;;;;5051181;28;20048;-36
2021/12/08 11:41:24;;;;;;;7.53;3.72;;;;;;;;;;5049632;28;20041;-36
2021/12/08 11:44:01;;;;;;;6.38;3.90;;;;;;;;;;5051073;28;20033;-36
2021/12/08 11:46:26;;;;;;;4.18;2.22;;;;;;;;;;5050875;28;20029;-36
2021/12/08 11:49:06;;;;;;;6.82;3.83;;;;;;;;;;5051146;28;20077;-36
2021/12/08 11:51:35;;;;;;;3.63;2.85;;;;;;;;;;5051334;28;20056;-36
2021/12/08 11:54:01;;;;;;;3.13;1.95;;;;;;;;;;5051106;28;20022;-36
2021/12/08 11:56:40;;;;;;;4.80;2.47;;;;;;;;;;5050999;28;20024;-36
2021/12/08 11:59:07;;;;;;;4.60;2.53;;;;;;;;;;5051386;28;20029;-36
2021/12/08 12:01:33;;;;;;;3.38;2.35;;;;;;;;;;5051083;28;20025;-36
2021/12/08 12:03:59;;;;;;;2.78;2.10;;;;;;;;;;5051163;28;20080;-36
2021/12/08 12:06:28;;;;;;;4.05;1.90;;;;;;;;;;5051019;28;20512;-36
2021/12/08 12:08:58;;;;;;;9.30;2.35;;;;;;;;;;5051342;28;20112;-36
2021/12/08 12:11:25;;;;;;;5.30;2.60;;;;;;;;;;5050854;28;20025;-37
2021/12/08 12:13:52;;;;;;;5.68;2.72;;;;;;;;;;5051259;28;20104;-36
2021/12/08 12:16:17;;;;;;;2.08;1.70;;;;;;;;;;5051493;28;20028;-36
2021/12/08 12:18:43;;;;;;;6.75;1.52;;;;;;;;;;5051100;28;20502;-37
2021/12/08 12:21:11;;;;;;;2.92;1.65;;;;;;;;;;5050899;28;20021;-36
2021/12/08 12:23:44;;;;;;;4.72;2.85;;;;;;;;;;5050838;28;20090;-37
2021/12/08 12:26:22;;;;;;;3.60;1.75;;;;;;;;;;5050929;28;20029;-37
2021/12/08 12:28:51;;;;;;;7.28;2.58;;;;;;;;;;5050870;28;20090;-37
2021/12/08 12:31:30;;;;;;;4.82;2.90;;;;;;;;;;5050732;28;20018;-36
2021/12/08 12:33:56;;;;;;;2.33;2.08;;;;;;;;;;5050951;28;20033;-36
2021/12/08 12:36:24;;;;;;;5.53;3.42;;;;;;;;;;5050718;28;20500;-37
2021/12/08 12:38:50;;;;;;;5.15;2.08;;;;;;;;;;5050494;28;20060;-36
2021/12/08 12:41:31;;;;;;;4.38;2.10;;;;;;;;;;5050617;28;20033;-37
2021/12/08 12:44:19;;;;;;;4.20;1.90;;;;;;;;;;5051172;28;20053;-36
2021/12/08 12:47:04;;;;;;;3.17;2.17;;;;;;;;;;5050652;28;20029;-36
2021/12/08 12:49:29;;;;;;;3.42;2.17;;;;;;;;;;5050528;28;20037;-36
2021/12/08 12:51:56;;;;;;;6.43;2.47;;;;;;;;;;5050592;28;20029;-36
2021/12/08 12:54:26;;;;;;;8.70;2.63;;;;;;;;;;5053222;28;20033;-36
2021/12/08 12:56:53;;;;;;;3.03;2.40;;;;;;;;;;5054127;28;20037;-36
2021/12/08 12:59:21;;;;;;;2.15;1.48;;;;;;;;;;5054361;28;20503;-37
2021/12/08 13:02:03;;;;;;;5.13;2.72;;;;;;;;;;5054315;28;20052;-36
2021/12/08 13:04:30;;;;;;;4.33;2.43;;;;;;;;;;5054524;28;20072;-36
2021/12/08 13:07:01;;;;;;;4.68;2.25;;;;;;;;;;5054335;28;20332;-36
2021/12/08 13:09:34;;;;;;;2.72;1.80;;;;;;;;;;5053824;28;20491;-36
2021/12/08 13:12:07;;;;;;;3.17;2.05;;;;;;;;;;5054285;28;20112;-37
2021/12/08 13:14:33;;;;;;;;;;;;;;;;;;5054210;28;20060;-37
2021/12/08 13:17:13;;;;;;;4.40;2.80;;;;;;;;;;5053761;28;19947;-37
2021/12/08 13:20:05;;;;;;;6.15;2.83;;;;;;;;;;5053841;28;20087;-37
2021/12/08 13:22:47;;;;;;;9.82;3.00;;;;;;;;;;5052408;28;20069;-36
2021/12/08 13:25:24;;;;;;;5.22;2.45;;;;;;;;;;5053580;28;20121;-36
2021/12/08 13:27:54;;;;;;;6.07;2.60;;;;;;;;;;5053713;28;20072;-36
2021/12/08 13:30:21;;;;;;;2.67;1.65;;;;;;;;;;5053735;28;20029;-37
2021/12/08 13:32:47;;;;;;;2.20;1.98;;;;;;;;;;5053861;28;20036;-36
2021/12/08 13:35:32;;;;;;;1.95;1.80;;;;;;;;;;5053725;28;20094;-36
2021/12/08 13:37:58;;;;;;;6.10;2.83;;;;;;;;;;5053205;28;20033;-36
2021/12/08 13:40:47;;;;;;;3.40;2.13;;;;;;;;;;5053207;28;20048;-38
2021/12/08 13:43:33;;;;;;;7.43;3.30;;;;;;;;;;5053194;28;20037;-37
2021/12/08 13:45:59;;;;;;;6.20;2.75;;;;;;;;;;5053504;28;20029;-37
2021/12/08 13:48:24;;;;;;;8.52;2.40;;;;;;;;;;5053489;28;20070;-36
2021/12/08 13:50:50;;;;;;;2.35;0.52;;;;;;;;;;5053540;28;20032;-37
2021/12/08 13:53:16;;;;;;;2.38;1.80;;;;;;;;;;5053024;28;20402;-36
2021/12/08 13:55:44;;;;;;;4.82;2.33;;;;;;;;;;5053117;28;20074;-36
2021/12/08 13:58:17;;;;;;;3.67;1.83;;;;;;;;;;5053336;28;20025;-36
2021/12/08 14:00:42;;;;;;;;;;;;;;;;;;5053515;28;20035;-37
2021/12/08 14:03:11;;;;;;;4.93;2.40;;;;;;;;;;5053205;28;19904;-36
2021/12/08 14:05:37;;;;;;;3.80;2.05;;;;;;;;;;5052730;28;20028;-37
2021/12/08 14:08:05;;;;;;;7.72;2.67;;;;;;;;;;5053019;28;20379;-36
2021/12/08 14:10:36;;;;;;;3.17;2.88;;;;;;;;;;5052813;28;20025;-36
2021/12/08 14:13:08;;;;;;;2.47;1.80;;;;;;;;;;5053057;28;20108;-36
2021/12/08 14:15:46;;;;;;;3.75;2.03;;;;;;;;;;5052903;28;20043;-37
2021/12/08 14:18:12;;;;;;;4.57;2.35;;;;;;;;;;5052893;28;20486;-36
2021/12/08 14:20:38;;;;;;;5.30;2.28;;;;;;;;;;5052645;28;20037;-37
2021/12/08 14:23:04;;;;;;;6.55;1.98;;;;;;;;;;5052887;28;20033;-36
2021/12/08 14:25:48;;;;;;;2.78;2.00;;;;;;;;;;5052402;28;20072;-36
2021/12/08 14:28:26;;;;;;;3.88;1.95;;;;;;;;;;5052648;28;20033;-36
2021/12/08 14:30:51;;;;;;;10.25;2.40;;;;;;;;;;5052549;28;20047;-36
2021/12/08 14:33:21;;;;;;;2.55;2.00;;;;;;;;;;5052586;28;20099;-36
2021/12/08 14:35:56;;;;;;;6.78;3.88;;;;;;;;;;5052546;28;20476;-36
2021/12/08 14:38:22;;;;;;;3.55;2.40;;;;;;;;;;5052002;28;20043;-36
2021/12/08 14:40:49;;;;;;;5.97;2.58;;;;;;;;;;5052547;28;20501;-36
2021/12/08 14:43:32;;;;;;;6.15;2.00;;;;;;;;;;5052108;28;20473;-36
2021/12/08 14:45:57;;;;;;;;;;;;;;;;;;5052945;28;20049;-36
2021/12/08 14:48:23;;;;;;;3.13;2.80;;;;;;;;;;5052255;28;19905;-36
2021/12/08 14:50:48;;;;;;;4.82;2.58;;;;;;;;;;5052337;28;20387;-36
2021/12/08 14:53:14;;;;;;;3.95;2.42;;;;;;;;;;5052243;28;20367;-36
2021/12/08 14:55:40;;;;;;;5.13;2.88;;;;;;;;;;5052151;28;20037;-36
2021/12/08 14:58:10;;;;;;;4.22;2.33;;;;;;;;;;5052221;28;20025;-37
2021/12/08 15:00:38;;;;;;;6.22;3.13;;;;;;;;;;5051946;28;20471;-36
2021/12/08 15:03:04;;;;;;;3.58;2.53;;;;;;;;;;5051836;28;20025;-36
2021/12/08 15:05:30;;;;;;;10.27;2.80;;;;;;;;;;5051611;28;20045;-36
2021/12/08 15:07:56;;;;;;;6.95;3.70;;;;;;;;;;5052062;28;20055;-36
2021/12/08 15:10:26;;;;;;;10.43;3.22;;;;;;;;;;5051650;28;20079;-36
2021/12/08 15:13:05;;;;;;;6.75;2.78;;;;;;;;;;5052074;28;20368;-37
2021/12/08 15:15:31;;;;;;;4.22;2.90;;;;;;;;;;5051312;28;20451;-36
2021/12/08 15:18:00;;;;;;;9.38;2.83;;;;;;;;;;5051851;28;20083;-37
2021/12/08 15:20:32;;;;;;;3.30;2.03;;;;;;;;;;5051487;28;20064;-37
2021/12/08 15:22:57;;;;;;;5.38;2.92;;;;;;;;;;5051605;28;20025;-37
2021/12/08 15:25:23;;;;;;;7.88;2.75;;;;;;;;;;5051162;28;20091;-37
2021/12/08 15:27:50;;;;;;;5.72;2.47;;;;;;;;;;5051487;28;20830;-40
2021/12/08 15:30:17;;;;;;;7.50;2.25;;;;;;;;;;5051263;28;20055;-37
2021/12/08 15:32:43;;;;;;;5.38;3.22;;;;;;;;;;5051410;28;20124;-37
2021/12/08 15:35:10;;;;;;;7.90;3.90;;;;;;;;;;5051309;28;20108;-36
2021/12/08 15:37:48;;;;;;;7.30;3.50;;;;;;;;;;5051506;28;20025;-37
2021/12/08 15:40:15;;;;;;;7.80;3.28;;;;;;;;;;5051104;28;20475;-37
2021/12/08 15:42:41;;;;;;;6.25;3.58;;;;;;;;;;5051352;28;20648;-36